Terminal Aerodrome Forecast
Issued by NWS Greer, SC

Home | Current Version | Previous Version | Text Only | Print | Product List | Glossary On
Versions: 1 2 3 4 5 6 7 8 9 10 11 12 13 14 15 16 17 18 19 20 21 22 23 24 25 26 27 28 29 30 31
099
FTUS42 KGSP 010538
TAFAVL
TAF
KAVL 010538Z 0106/0206 VRB02KT P6SM BKN130
     FM011000 00000KT 6SM BR FEW025 SCT130
     FM011300 15003KT P6SM BKN050 PROB30 0116/0122 4SM -TSRA
      BKN030CB
     FM020000 00000KT P6SM BKN120=

USA.gov is the U.S. government's official web portal to all federal, state and local government web resources and services.